Flight Track Log - Related Links

Times and Time Zones

All times are in EDT time to prevent confusion due to time zone crossing. See the XOJ552 flight status page for this flight to view local times or setup timezone preferences in your user account.

Time Position Orientation Groundspeed Altitude Reporting Facility
EDT Latitude Longitude Course Direction KTS MPH feet Rate Location/Type
Mon 09:53:39 AM 44.3419 -68.4453 225° Southwest 252 290 7,100  Level Boston Center
Mon 09:54:39 AM 44.2819 -68.5189 221° Southwest 272 313 11,100 3,610 Climbing Boston Center
Mon 09:55:37 AM 44.2181 -68.5986 222° Southwest 292 336 14,200 3,176 Climbing Boston Center
Mon 09:56:38 AM 44.1461 -68.6900 222° Southwest 326 375 17,400 3,098 Climbing Boston Center
Mon 09:57:39 AM 44.0717 -68.7786 221° Southwest 347 399 20,500 2,924 Climbing Boston Center
Mon 09:58:00 AM 43.9551 -68.9452 225° Southwest  Level FlightAware Approximate
Mon 09:58:37 AM 43.9933 -68.8728 221° Southwest 365 420 23,200  Level Boston Center
Mon 09:59:38 AM 43.9150 -68.9697 222° Southwest 377 434 25,900 2,579 Climbing Boston Center
Mon 10:00:38 AM 43.8325 -69.0694 221° Southwest 377 434 28,400 2,479 Climbing Boston Center
Mon 10:01:39 AM 43.7519 -69.1661 221° Southwest 388 447 30,900 2,281 Climbing Boston Center
Mon 10:02:39 AM 43.6714 -69.2653 222° Southwest 388 447 33,000 2,085 Climbing Boston Center
Mon 10:03:37 AM 43.5883 -69.3556 218° Southwest 388 447 35,000 2,034 Climbing Boston Center
Mon 10:04:37 AM 43.5058 -69.4628 223° Southwest 388 447 37,000 1,983 Climbing Boston Center
Mon 10:05:38 AM 43.4308 -69.5494 220° Southwest 376 433 39,000 1,488 Climbing Boston Center
Mon 10:06:38 AM 43.3761 -69.6150 221° Southwest 363 418 40,000 942 Climbing Boston Center
Mon 10:07:39 AM 43.2892 -69.7217 222° Southwest 348 400 40,900 744 Climbing Boston Center
Mon 10:08:39 AM 43.2119 -69.8106 220° Southwest 354 407 41,500 508 Climbing Boston Center
Mon 10:09:37 AM 43.1350 -69.9019 221° Southwest 360 414 41,900 407 Climbing Boston Center
Mon 10:10:37 AM 43.0658 -69.9875 222° Southwest 372 428 42,300 446 Climbing Boston Center
Mon 10:11:38 AM 42.9886 -70.0814 222° Southwest 377 434 42,800 347 Climbing Boston Center
Mon 10:12:38 AM 42.9072 -70.1722 219° Southwest 377 434 43,000 99 Climbing Boston Center
Mon 10:13:39 AM 42.8175 -70.2747 220° Southwest 377 434 43,000  Level Boston Center
Mon 10:14:37 AM 42.7339 -70.3708 220° Southwest 382 440 43,000  Level Boston Center
Mon 10:15:38 AM 42.6561 -70.4639 221° Southwest 382 440 43,000  Level Boston Center
Mon 10:16:39 AM 42.5725 -70.5625 221° Southwest 394 453 43,000  Level Boston Center
Mon 10:17:37 AM 42.4947 -70.6578 222° Southwest 394 453 43,000  Level Boston Center
Mon 10:18:37 AM 42.4150 -70.7500 221° Southwest 399 459 43,000  Level Boston Center
Mon 10:19:38 AM 42.3494 -70.8275 221° Southwest 399 459 43,000  Level Boston Center
Mon 10:20:39 AM 42.2694 -70.9333 224° Southwest 387 445 43,000  Level Boston Center
Mon 10:21:37 AM 42.1792 -71.0392 221° Southwest 390 449 43,000  Level Boston Center
Mon 10:22:38 AM 42.0989 -71.1306 220° Southwest 390 449 43,000  Level Boston Center
Mon 10:23:38 AM 42.0186 -71.2244 221° Southwest 385 443 43,000  Level Boston Center
Mon 10:24:39 AM 41.9383 -71.3181 221° Southwest 385 443 43,000  Level Boston Center
Mon 10:25:39 AM 41.8581 -71.4089 220° Southwest 385 443 43,000  Level Boston Center
Mon 10:26:37 AM 41.7775 -71.5047 222° Southwest 385 443 43,000  Level Boston Center
Mon 10:27:38 AM 41.6928 -71.5922 218° Southwest 385 443 43,000  Level Boston Center
Mon 10:28:39 AM 41.6122 -71.6819 220° Southwest 385 443 43,000  Level Boston Center
Mon 10:29:37 AM 41.5294 -71.7744 220° Southwest 390 449 43,000  Level Boston Center
Mon 10:30:37 AM 41.4508 -71.8694 222° Southwest 390 449 43,000  Level Boston Center
Mon 10:31:38 AM 41.3678 -71.9617 220° Southwest 390 449 43,000  Level Boston Center
Mon 10:32:38 AM 41.2869 -72.0533 220° Southwest 390 449 43,000  Level Boston Center
Mon 10:33:39 AM 41.2017 -72.1478 220° Southwest 390 449 43,000  Level Boston Center
Mon 10:34:37 AM 41.1206 -72.2417 221° Southwest 390 449 43,000  Level Boston Center
Mon 10:35:37 AM 41.0394 -72.3300 219° Southwest 390 449 43,000  Level Boston Center
Mon 10:36:38 AM 40.9583 -72.4208 220° Southwest 390 449 43,000  Level Boston Center
Mon 10:37:38 AM 40.8750 -72.5114 219° Southwest 390 449 43,000  Level Boston Center
Mon 10:38:39 AM 40.7914 -72.6047 220° Southwest 390 449 43,000  Level Boston Center
Mon 10:39:39 AM 40.7100 -72.6839 216° Southwest 396 456 43,000  Level Boston Center
Mon 10:40:37 AM 40.6286 -72.7792 222° Southwest 401 461 43,000  Level Boston Center
Mon 10:41:38 AM 40.5469 -72.8717 221° Southwest 395 455 43,000  Level Boston Center
Mon 10:43:31 AM 40.3944 -73.0394 220° Southwest 376 433 43,000  Level Washington Center
Mon 10:44:31 AM 40.3111 -73.1294 219° Southwest 382 440 43,000  Level Washington Center
Mon 10:45:32 AM 40.2297 -73.2222 221° Southwest 387 445 43,000  Level Washington Center
Mon 10:46:32 AM 40.1458 -73.3119 219° Southwest 393 452 43,000  Level Washington Center
Mon 10:47:29 AM 40.0642 -73.4011 220° Southwest 393 452 43,000  Level Washington Center
Mon 10:48:30 AM 39.9783 -73.4878 218° Southwest 393 452 43,000  Level Washington Center
Mon 10:49:30 AM 39.8964 -73.5767 220° Southwest 393 452 43,000  Level Washington Center
Mon 10:50:31 AM 39.8125 -73.6656 219° Southwest 393 452 43,000  Level Washington Center
Mon 10:51:31 AM 39.7306 -73.7542 220° Southwest 393 452 43,000  Level Washington Center
Mon 10:52:32 AM 39.6444 -73.8453 219° Southwest 393 452 43,000  Level Washington Center
Mon 10:53:29 AM 39.5603 -73.9333 219° Southwest 393 452 43,000  Level Washington Center
Mon 10:54:31 AM 39.4803 -74.0239 221° Southwest 393 452 43,000  Level Washington Center
Mon 10:55:31 AM 39.3939 -74.1064 216° Southwest 393 452 43,000  Level Washington Center
Mon 10:56:32 AM 39.3094 -74.1967 220° Southwest 393 452 43,000  Level Washington Center
Mon 10:57:30 AM 39.2250 -74.2842 219° Southwest 393 452 43,000  Level Washington Center
Mon 10:58:30 AM 39.1447 -74.3767 222° Southwest 393 452 43,000  Level Washington Center
Mon 10:59:31 AM 39.0475 -74.4692 216° Southwest 393 452 43,000  Level Washington Center
Mon 11:00:43 AM 38.9669 -74.5425 215° Southwest 398 458 43,000  Level Washington Center
Mon 11:01:44 AM 38.8678 -74.6478 220° Southwest 392 451 43,000  Level Washington Center
Mon 11:02:44 AM 38.7811 -74.7528 223° Southwest 386 444 43,000  Level Washington Center
Mon 11:03:41 AM 38.6897 -74.8311 214° Southwest 386 444 43,000  Level Washington Center
Mon 11:04:42 AM 38.6069 -74.9247 221° Southwest 392 451 43,000  Level Washington Center
Mon 11:05:43 AM 38.5136 -74.9947 210° Southwest 397 457 43,000  Level Washington Center
Mon 11:06:44 AM 38.4222 -75.0803 216° Southwest 402 463 43,000  Level Washington Center
Mon 11:07:42 AM 38.3369 -75.1444 211° Southwest 402 463 43,000  Level Washington Center
Mon 11:08:43 AM 38.2392 -75.2350 216° Southwest 402 463 43,000  Level Washington Center
Mon 11:09:43 AM 38.1478 -75.3119 214° Southwest 402 463 43,000  Level Washington Center
Mon 11:10:44 AM 38.0542 -75.3914 214° Southwest 402 463 43,000  Level Washington Center
Mon 11:11:44 AM 37.9625 -75.4706 214° Southwest 396 456 43,000  Level Washington Center
Mon 11:12:44 AM 37.8708 -75.5472 213° Southwest 396 456 43,000  Level Washington Center
Mon 11:13:42 AM 37.7789 -75.6233 213° Southwest 396 456 43,000  Level Washington Center
Mon 11:14:42 AM 37.6850 -75.6994 213° Southwest 396 456 43,000  Level Washington Center
Mon 11:15:43 AM 37.5975 -75.7778 215° Southwest 396 456 43,000  Level Washington Center
Mon 11:16:44 AM 37.5033 -75.8536 213° Southwest 396 456 43,000  Level Washington Center
Mon 11:17:43 AM 37.4136 -75.9292 214° Southwest 396 456 43,000  Level Washington Center
Mon 11:18:44 AM 37.3214 -76.0044 213° Southwest 396 456 43,000  Level Washington Center
Mon 11:19:42 AM 37.2272 -76.0822 213° Southwest 396 456 43,000  Level Washington Center
Mon 11:20:43 AM 37.1542 -76.1417 213° Southwest 396 456 43,000  Level Washington Center
Mon 11:21:42 AM 37.0453 -76.2189 210° Southwest 401 461 43,000  Level Washington Center
Mon 11:22:42 AM 36.9508 -76.2989 214° Southwest 411 473 43,000  Level Washington Center
Mon 11:23:42 AM 36.8586 -76.3733 213° Southwest 411 473 43,000  Level Washington Center
Mon 11:24:43 AM 36.7622 -76.4528 213° Southwest 411 473 43,000  Level Washington Center
Mon 11:25:44 AM 36.6719 -76.5319 215° Southwest 416 479 43,000  Level Washington Center
Mon 11:26:43 AM 36.5772 -76.6083 213° Southwest 416 479 43,000  Level Washington Center
Mon 11:27:43 AM 36.4828 -76.6822 212° Southwest 416 479 43,000  Level Washington Center
Mon 11:28:44 AM 36.3861 -76.7581 212° Southwest 416 479 43,000  Level Washington Center
Mon 11:29:43 AM 36.2914 -76.8367 214° Southwest 416 479 43,000  Level Washington Center
Mon 11:30:44 AM 36.1947 -76.9122 212° Southwest 416 479 43,000  Level Washington Center
Mon 11:31:42 AM 36.0978 -76.9878 212° Southwest 416 479 43,000  Level Washington Center
Mon 11:32:43 AM 36.0011 -77.0631 212° Southwest 421 484 43,000  Level Washington Center
Mon 11:33:44 AM 35.9083 -77.1358 212° Southwest 421 484 43,000  Level Washington Center
Mon 11:34:44 AM 35.8133 -77.2133 213° Southwest 416 479 43,000  Level Washington Center
Mon 11:35:44 AM 35.7164 -77.2908 213° Southwest 422 486 43,000  Level Washington Center
Mon 11:36:42 AM 35.6192 -77.3653 212° Southwest 422 486 43,000  Level Washington Center
Mon 11:37:42 AM 35.5200 -77.4422 212° Southwest 422 486 43,000  Level Washington Center
Mon 11:38:43 AM 35.4250 -77.5139 212° Southwest 422 486 43,000  Level Washington Center
Mon 11:39:43 AM 35.3317 -77.5983 216° Southwest 422 486 43,000  Level Washington Center
Mon 11:40:44 AM 35.2406 -77.6928 220° Southwest 422 486 43,000  Level Washington Center
Mon 11:41:44 AM 35.1511 -77.7842 220° Southwest 427 491 43,000  Level Washington Center
Mon 11:42:42 AM 35.0619 -77.8758 220° Southwest 427 491 43,000  Level Washington Center
Mon 11:43:43 AM 34.9725 -77.9669 220° Southwest 422 486 43,000  Level Washington Center
Mon 11:44:44 AM 34.8831 -78.0581 220° Southwest 422 486 43,000  Level Washington Center
Mon 11:45:42 AM 34.7994 -78.1567 224° Southwest 422 486 43,000  Level Washington Center
Mon 11:47:18 AM 34.6542 -78.3042 220° Southwest 425 489 43,000  Level Jacksonville Center
Mon 11:48:18 AM 34.5656 -78.3947 220° Southwest 425 489 43,000  Level Jacksonville Center
Mon 11:49:18 AM 34.4728 -78.4853 219° Southwest 425 489 43,000  Level Jacksonville Center
Mon 11:50:18 AM 34.3822 -78.5778 220° Southwest 430 495 43,000  Level Jacksonville Center
Mon 11:51:18 AM 34.2914 -78.6703 220° Southwest 430 495 43,000  Level Jacksonville Center
Mon 11:52:18 AM 34.1986 -78.7603 219° Southwest 436 502 43,000  Level Jacksonville Center
Mon 11:53:18 AM 34.1075 -78.8522 220° Southwest 441 507 43,000 -50 Level Jacksonville Center
Mon 11:54:18 AM 34.0144 -78.9417 219° Southwest 441 507 42,900  Descending Jacksonville Center
Mon 11:55:18 AM 33.9233 -79.0308 219° Southwest 441 507 43,000 50 Climbing Jacksonville Center
Mon 11:56:18 AM 33.8303 -79.1250 220° Southwest 441 507 43,000  Level Jacksonville Center
Mon 11:57:18 AM 33.7369 -79.2164 219° Southwest 441 507 43,000  Level Jacksonville Center
Mon 11:58:18 AM 33.6394 -79.3103 219° Southwest 434 499 43,000  Level Jacksonville Center
Mon 11:59:18 AM 33.5481 -79.3986 219° Southwest 434 499 43,000  Level Jacksonville Center
Mon 12:00:18 PM 33.4547 -79.4919 220° Southwest 434 499 43,000  Level Jacksonville Center
Mon 12:01:18 PM 33.3611 -79.5850 220° Southwest 439 505 43,000  Level Jacksonville Center
Mon 12:02:18 PM 33.2675 -79.6756 219° Southwest 444 511 43,000  Level Jacksonville Center
Mon 12:03:18 PM 33.1736 -79.7658 219° Southwest 444 511 43,000  Level Jacksonville Center
Mon 12:04:18 PM 33.0778 -79.8558 218° Southwest 444 511 43,000  Level Jacksonville Center
Mon 12:05:18 PM 32.9797 -79.9483 218° Southwest 444 511 43,000  Level Jacksonville Center
Mon 12:06:18 PM 32.8919 -80.0303 218° Southwest 450 518 43,000  Level Jacksonville Center
Mon 12:07:18 PM 32.7872 -80.1128 214° Southwest 450 518 43,000  Level Jacksonville Center
Mon 12:08:18 PM 32.6825 -80.1925 213° Southwest 455 524 43,000  Level Jacksonville Center
Mon 12:09:18 PM 32.5819 -80.2694 213° Southwest 450 518 43,000  Level Jacksonville Center
Mon 12:10:18 PM 32.4750 -80.3464 211° Southwest 450 518 43,000  Level Jacksonville Center
Mon 12:11:18 PM 32.3681 -80.4256 212° Southwest 450 518 43,000 -500 Level Jacksonville Center
Mon 12:12:18 PM 32.2608 -80.5022 211° Southwest 450 518 42,000 -1,000 Descending Jacksonville Center
Mon 12:13:18 PM 32.1558 -80.5833 213° Southwest 450 518 41,000 -1,000 Descending Jacksonville Center
Mon 12:14:18 PM 32.0550 -80.6547 211° Southwest 443 510 40,000 -1,050 Descending Jacksonville Center
Mon 12:15:18 PM 31.9372 -80.7383 211° Southwest 448 516 38,900 -1,000 Descending Jacksonville Center
Mon 12:16:18 PM 31.8281 -80.8167 211° Southwest 453 521 38,000 -450 Descending Jacksonville Center
Mon 12:17:18 PM 31.7331 -80.8847 211° Southwest 458 527 38,000  Level Jacksonville Center
Mon 12:18:18 PM 31.6108 -80.9531 205° Southwest 443 510 38,000  Level Jacksonville Center
Mon 12:19:19 PM 31.4986 -80.9775 191° South 448 516 38,000  Level Jacksonville Center
Mon 12:20:18 PM 31.3633 -81.0069 191° South 456 525 38,000  Level Jacksonville Center
Mon 12:21:18 PM 31.2508 -81.0311 190° South 456 525 38,000  Level Jacksonville Center
Mon 12:22:18 PM 31.1261 -81.0556 190° South 456 525 38,000  Level Jacksonville Center
Mon 12:23:18 PM 31.0011 -81.0822 190° South 456 525 38,000 -1,300 Level Jacksonville Center
Mon 12:24:18 PM 30.8783 -81.1064 190° South 456 525 35,400 -2,650 Descending Jacksonville Center
Mon 12:25:18 PM 30.7594 -81.1278 189° South 450 518 32,700 -2,650 Descending Jacksonville Center
Mon 12:26:18 PM 30.6361 -81.1108 173° South 436 502 30,100 -2,500 Descending Jacksonville Center
Mon 12:27:18 PM 30.5106 -81.0817 169° South 449 517 27,700 -2,200 Descending Jacksonville Center
Mon 12:28:18 PM 30.3847 -81.0578 171° South 455 524 25,700 -2,000 Descending Jacksonville Center
Mon 12:29:18 PM 30.2531 -81.0314 170° South 450 518 23,700 -2,000 Descending Jacksonville Center
Mon 12:30:18 PM 30.1378 -81.0047 169° South 444 511 21,700 -2,018 Descending Jacksonville Center
Mon 12:31:11 PM 30.0414 -80.9828 169° South 429 494 19,900 -2,019 Descending Jacksonville Center
Mon 12:32:05 PM 29.9328 -80.9753 177° South 425 489 18,100 -1,934 Descending Jacksonville Center
Mon 12:33:12 PM 29.8014 -80.9850 184° South 406 467 16,000 -1,969 Descending Jacksonville Center
Mon 12:34:13 PM 29.6928 -80.9919 183° South 383 441 13,900 -2,017 Descending Jacksonville Center
Mon 12:35:08 PM 29.5992 -81.0033 186° South 367 422 12,100 -1,982 Descending Jacksonville Center
Mon 12:36:02 PM 29.5114 -81.0097 184° South 335 386 10,300 -1,565 Descending Jacksonville Center
Mon 12:37:03 PM 29.4303 -81.0136 182° South 281 323 9,100 -563 Descending Jacksonville Center
Mon 12:38:10 PM 29.3467 -81.0200 184° South 273 314 9,100 -516 Level Jacksonville Center
Mon 12:39:11 PM 29.2717 -81.0261 184° South 275 316 8,000 -1,345 Descending Jacksonville Center
Mon 12:40:06 PM 29.2008 -81.0300 183° South 261 300 6,500 -1,053 Descending Jacksonville Center
Mon 12:42:02 PM 29.0667 -81.0333 181° South 249 287 5,000 -511 Descending Orlando TRACON
Mon 12:43:02 PM 29.0000 -81.0500 192° South 260 299 5,000 -150 Level Orlando TRACON
Mon 12:44:02 PM 28.9167 -81.0500 180° South 265 305 4,700 -678 Descending Orlando TRACON
Mon 12:44:57 PM 28.8833 -81.1167 240° Southwest 283 326 3,700 -895 Descending Orlando TRACON
Mon 12:45:56 PM 28.8333 -81.1833 229° Southwest 279 321 3,000 -368 Descending Orlando TRACON
Mon 12:46:51 PM 28.7833 -81.2333 221° Southwest 253 291 3,000 -440 Level Orlando TRACON
Mon 12:47:45 PM 28.7500 -81.3000 240° Southwest 262 302 2,200 -526 Descending Orlando TRACON
Mon 12:48:45 PM 28.7167 -81.3667 240° Southwest 256 295 2,000 -95 Descending Orlando TRACON
Mon 12:49:51 PM 28.6667 -81.4500 236° Southwest 277 319 2,000  Level Orlando TRACON
Mon 12:50:57 PM 28.5833 -81.4500 180° South 251 289 2,000 -189 Level Orlando TRACON
Mon 12:51:58 PM 28.5333 -81.4500 180° South 214 246 1,600 -397 Descending Orlando TRACON
Mon 12:52:58 PM 28.5167 -81.3833 106° East 186 214 1,200 -400 Descending Orlando TRACON
Mon 12:54:00 PM 28.5455 -81.3329 113° Southeast  Level Estimated
Mon 01:01:00 PM 28.5455 -81.3329 113° Southeast  Level Estimated
Mon 01:02:00 PM 28.5455 -81.3329 113° Southeast  Level Estimated

Login

Don't have an account? Register now (free) for customized features, flight alerts, and more!